Time;durP1;ratioP1;P1;durP2;ratioP2;P2;SDS_P1;SDS_P2;PMS_P1;PMS_P2;Temp;Humidity;BMP_temperature;BMP_pressure;BME280_temperature;BME280_humidity;BME280_pressure;Samples;Min_cycle;Max_cycle;Signal;HPM_P1;HPM_P2
2021/08/08 00:00:53;;;;;;;5.20;3.90;;;;;;;17.62;76.76;99710.89;93753;1202;94332;-63
2021/08/08 00:03:07;;;;;;;5.60;4.30;;;;;;;17.66;76.58;99719.77;93735;1189;77822;-63
2021/08/08 00:05:16;;;;;;;6.80;4.60;;;;;;;17.70;76.55;99719.07;93771;1203;80718;-63
2021/08/08 00:07:23;;;;;;;6.10;4.20;;;;;;;17.74;76.47;99723.55;93756;1202;97270;-63
2021/08/08 00:09:34;;;;;;;4.90;4.40;;;;;;;17.75;76.31;99724.27;93740;1202;88198;-63
2021/08/08 00:11:42;;;;;;;4.90;4.20;;;;;;;17.74;76.22;99725.85;93750;1203;94424;-63
2021/08/08 00:13:50;;;;;;;5.70;3.60;;;;;;;17.74;76.17;99729.06;93733;1197;81098;-63
2021/08/08 00:15:57;;;;;;;5.20;4.10;;;;;;;17.75;76.06;99724.05;93720;1202;80079;-58
2021/08/08 00:18:07;;;;;;;4.40;4.00;;;;;;;17.80;75.95;99716.52;93749;1197;97717;-59
2021/08/08 00:20:15;;;;;;;3.80;3.40;;;;;;;17.83;75.86;99715.38;93750;1203;87888;-58
2021/08/08 00:22:23;;;;;;;4.90;4.10;;;;;;;17.89;75.79;99712.55;93776;1196;93657;-58
2021/08/08 00:24:31;;;;;;;4.30;3.90;;;;;;;17.94;75.66;99708.80;93760;1196;79536;-58
2021/08/08 00:26:39;;;;;;;4.60;3.60;;;;;;;18.02;75.56;99701.52;93769;1202;81778;-63
2021/08/08 00:28:48;;;;;;;4.70;3.80;;;;;;;18.10;75.41;99699.20;93741;1202;98215;-63
2021/08/08 00:30:59;;;;;;;6.00;3.90;;;;;;;18.15;75.38;99694.94;93780;1196;87144;-58
2021/08/08 00:33:07;;;;;;;5.20;4.50;;;;;;;18.16;75.29;99693.10;93699;1205;94571;-58
2021/08/08 00:35:15;;;;;;;5.50;4.20;;;;;;;18.14;75.33;99686.08;93821;1203;81257;-59
2021/08/08 00:37:22;;;;;;;5.80;4.20;;;;;;;18.14;75.26;99690.39;93794;1190;80802;-58
2021/08/08 00:39:31;;;;;;;5.00;4.40;;;;;;;18.14;75.23;99688.16;93802;1198;99475;-58
2021/08/08 00:41:39;;;;;;;6.90;4.50;;;;;;;18.16;75.29;99681.84;93786;1198;86309;-63
2021/08/08 00:43:46;;;;;;;5.00;4.00;;;;;;;18.16;75.33;99676.81;93767;1202;92669;-63
2021/08/08 00:45:54;;;;;;;4.80;4.10;;;;;;;18.19;75.28;99675.13;93762;1202;80926;-59
2021/08/08 00:48:01;;;;;;;4.30;3.90;;;;;;;18.21;75.31;99672.66;93777;1203;81781;-58
2021/08/08 00:50:12;;;;;;;5.30;4.30;;;;;;;18.31;75.35;99672.05;93798;1203;99693;-58
2021/08/08 00:52:20;;;;;;;4.30;3.90;;;;;;;18.40;75.29;99667.11;93791;1196;86777;-58
2021/08/08 00:54:30;;;;;;;4.90;4.10;;;;;;;18.47;75.26;99665.06;93748;1202;93946;-58
2021/08/08 00:56:38;;;;;;;5.60;4.30;;;;;;;18.53;75.23;99657.55;93740;1190;79979;-59
2021/08/08 00:58:45;;;;;;;4.80;4.20;;;;;;;18.60;75.15;99657.60;93772;1202;81955;-58
2021/08/08 01:00:54;;;;;;;4.50;4.10;;;;;;;18.64;75.09;99659.39;93786;1202;98511;-63
2021/08/08 01:03:06;;;;;;;6.00;4.70;;;;;;;18.70;75.16;99656.10;93799;1203;86133;-63
2021/08/08 01:05:19;;;;;;;5.20;3.80;;;;;;;18.74;75.06;99651.61;93757;1202;93620;-63
2021/08/08 01:07:32;;;;;;;4.70;4.20;;;;;;;18.80;74.92;99654.88;93749;1202;78219;-63
2021/08/08 01:09:49;;;;;;;4.90;4.30;;;;;;;18.84;74.83;99650.70;93735;1202;82147;-59
2021/08/08 01:12:00;;;;;;;7.00;4.00;;;;;;;18.88;74.78;99650.40;93758;1203;98799;-59
2021/08/08 01:14:09;;;;;;;5.10;4.00;;;;;;;18.91;74.71;99643.38;93757;1202;87740;-59
2021/08/08 01:16:22;;;;;;;5.40;4.10;;;;;;;18.94;74.79;99641.86;93744;1202;94050;-63
2021/08/08 01:18:31;;;;;;;5.30;4.20;;;;;;;18.98;74.68;99641.02;93725;1202;80180;-63
2021/08/08 01:20:40;;;;;;;5.90;4.30;;;;;;;19.00;74.54;99633.54;93762;1203;81280;-64
2021/08/08 01:22:52;;;;;;;5.30;4.10;;;;;;;19.02;74.56;99626.53;93785;1202;98195;-63
2021/08/08 01:25:02;;;;;;;5.60;4.10;;;;;;;19.03;74.52;99627.20;93758;1203;87945;-63
2021/08/08 01:27:12;;;;;;;4.20;3.80;;;;;;;19.04;74.49;99623.59;93776;1202;94463;-63
2021/08/08 01:29:20;;;;;;;6.40;4.50;;;;;;;19.06;74.48;99624.48;93725;1196;78431;-63
2021/08/08 01:31:28;;;;;;;5.10;4.60;;;;;;;19.05;74.42;99622.07;93781;1203;81767;-59
2021/08/08 01:33:36;;;;;;;4.90;3.90;;;;;;;19.05;74.44;99616.27;93751;1202;99974;-59
2021/08/08 01:35:44;;;;;;;5.00;4.40;;;;;;;19.07;74.42;99610.64;93751;1202;87799;-59
2021/08/08 01:37:51;;;;;;;6.30;4.70;;;;;;;19.09;74.51;99611.80;93712;1202;95023;-59
2021/08/08 01:40:12;;;;;;;6.30;4.50;;;;;;;19.11;74.46;99607.27;93747;1199;77774;-59
2021/08/08 01:42:20;;;;;;;5.80;4.50;;;;;;;19.13;74.45;99607.84;93770;1189;79930;-58
2021/08/08 01:44:34;;;;;;;6.40;4.80;;;;;;;19.13;74.37;99609.31;93760;1202;98679;-58
2021/08/08 01:46:43;;;;;;;7.30;5.30;;;;;;;19.14;74.40;99608.45;93749;1202;87800;-59
2021/08/08 01:48:56;;;;;;;6.10;5.10;;;;;;;19.13;74.41;99606.73;93710;1202;94144;-58
2021/08/08 01:51:04;;;;;;;5.10;4.60;;;;;;;19.11;74.28;99603.59;93784;1189;78268;-58
2021/08/08 01:53:12;;;;;;;4.90;4.50;;;;;;;19.07;74.32;99596.84;93788;1202;82862;-58
2021/08/08 01:55:20;;;;;;;5.80;4.10;;;;;;;19.01;74.28;99596.25;93736;1202;97956;-59
2021/08/08 01:57:28;;;;;;;5.30;4.80;;;;;;;18.98;74.14;99594.47;93755;1202;86502;-58
2021/08/08 01:59:36;;;;;;;5.90;4.80;;;;;;;18.94;74.26;99596.86;93760;1202;93022;-61
2021/08/08 02:01:44;;;;;;;6.90;4.90;;;;;;;18.89;74.43;99592.55;93706;1205;78380;-63
2021/08/08 02:03:52;;;;;;;4.50;4.10;;;;;;;18.84;74.37;99586.02;93776;1203;81326;-63
2021/08/08 02:06:02;;;;;;;6.20;4.30;;;;;;;18.82;74.27;99591.52;93759;1203;99246;-59
2021/08/08 02:08:11;;;;;;;5.20;4.70;;;;;;;18.80;74.37;99591.95;93766;1196;87836;-58
2021/08/08 02:10:19;;;;;;;5.60;4.50;;;;;;;18.78;74.46;99591.44;93739;1205;94129;-59
2021/08/08 02:12:29;;;;;;;5.50;5.00;;;;;;;18.75;74.51;99585.94;93754;1189;78188;-58
2021/08/08 02:14:38;;;;;;;7.20;4.80;;;;;;;18.74;74.55;99587.58;93763;1196;80959;-59
2021/08/08 02:16:48;;;;;;;8.30;5.20;;;;;;;18.71;74.59;99576.61;93768;1203;99546;-59
2021/08/08 02:18:59;;;;;;;5.60;4.50;;;;;;;18.72;74.60;99572.55;93683;1199;86220;-58
2021/08/08 02:21:06;;;;;;;6.40;4.80;;;;;;;18.72;74.69;99565.06;93758;1202;93677;-63
2021/08/08 02:23:14;;;;;;;6.90;6.10;;;;;;;18.72;74.59;99562.11;93744;1202;79893;-63
2021/08/08 02:25:25;;;;;;;7.00;5.00;;;;;;;18.73;74.69;99558.89;93793;1202;82063;-58
2021/08/08 02:27:32;;;;;;;5.70;5.00;;;;;;;18.72;74.62;99553.46;93748;1202;97835;-58
2021/08/08 02:29:43;;;;;;;7.70;5.00;;;;;;;18.72;74.73;99546.14;93805;1202;86809;-63
2021/08/08 02:31:51;;;;;;;6.80;4.50;;;;;;;18.74;74.82;99541.54;93780;1195;91773;-63
2021/08/08 02:33:59;;;;;;;6.20;4.80;;;;;;;18.75;74.75;99531.22;93740;1202;78603;-63
2021/08/08 02:36:07;;;;;;;5.90;5.00;;;;;;;18.75;74.76;99532.80;93784;1195;80973;-63
2021/08/08 02:38:14;;;;;;;7.30;4.80;;;;;;;18.75;74.69;99536.80;93777;1202;99059;-63
2021/08/08 02:40:22;;;;;;;8.50;5.20;;;;;;;18.74;74.68;99537.54;93714;1199;87060;-59
2021/08/08 02:42:31;;;;;;;7.40;4.60;;;;;;;18.72;74.79;99546.89;93742;1202;94065;-59
2021/08/08 02:44:39;;;;;;;8.80;4.90;;;;;;;18.71;74.80;99542.08;93721;1203;78718;-59
2021/08/08 02:46:47;;;;;;;5.50;4.90;;;;;;;18.65;74.91;99541.54;93744;1202;81665;-58
2021/08/08 02:48:57;;;;;;;4.80;3.90;;;;;;;18.61;74.76;99538.44;93728;1203;98381;-59
2021/08/08 02:51:05;;;;;;;6.30;4.90;;;;;;;18.57;74.99;99536.39;93748;1202;87761;-63
2021/08/08 02:53:13;;;;;;;5.00;4.40;;;;;;;18.54;74.91;99537.84;93746;1203;94134;-63
2021/08/08 02:55:21;;;;;;;6.40;5.00;;;;;;;18.51;74.91;99533.33;93787;1196;78276;-63
2021/08/08 02:57:29;;;;;;;5.50;4.70;;;;;;;18.46;75.06;99531.20;93765;1189;81784;-62
2021/08/08 02:59:39;;;;;;;6.00;4.60;;;;;;;18.44;75.00;99527.66;93800;1203;98920;-59
2021/08/08 03:01:50;;;;;;;6.70;4.70;;;;;;;18.39;74.97;99533.86;93804;1202;86695;-58
2021/08/08 03:03:57;;;;;;;6.10;4.90;;;;;;;18.36;75.15;99532.63;93804;1202;93717;-58
2021/08/08 03:06:11;;;;;;;5.20;4.70;;;;;;;18.33;75.31;99531.08;93768;1202;79225;-57
2021/08/08 03:08:19;;;;;;;7.00;4.50;;;;;;;18.30;75.47;99533.40;93770;1196;80190;-57
2021/08/08 03:10:26;;;;;;;6.30;4.80;;;;;;;18.29;75.38;99530.77;93716;1202;98368;-62
2021/08/08 03:12:34;;;;;;;7.10;4.50;;;;;;;18.26;75.46;99531.14;93768;1204;87278;-62
2021/08/08 03:14:44;;;;;;;6.70;4.70;;;;;;;18.25;75.86;99528.45;93745;1196;92968;-58
2021/08/08 03:16:52;;;;;;;5.40;4.30;;;;;;;18.24;75.73;99527.63;93780;1196;78690;-58
2021/08/08 03:18:59;;;;;;;5.20;4.70;;;;;;;18.27;75.73;99532.02;93675;1204;82363;-57
2021/08/08 03:21:08;;;;;;;6.80;4.50;;;;;;;18.28;75.76;99527.71;93802;1203;98800;-57
2021/08/08 03:23:17;;;;;;;5.70;4.10;;;;;;;18.30;75.91;99532.04;93776;1196;86346;-57
2021/08/08 03:25:25;;;;;;;5.40;4.20;;;;;;;18.33;75.87;99527.85;93698;1202;94535;-58
2021/08/08 03:27:32;;;;;;;6.70;4.60;;;;;;;18.36;75.87;99519.84;93721;1202;80765;-57
2021/08/08 03:29:40;;;;;;;5.10;4.20;;;;;;;18.38;76.05;99515.41;93762;1189;80230;-58
2021/08/08 03:31:47;;;;;;;6.50;4.60;;;;;;;18.41;75.97;99509.81;93770;1202;98533;-58
2021/08/08 03:33:57;;;;;;;5.80;4.50;;;;;;;18.46;76.05;99507.89;93774;1196;86179;-58
2021/08/08 03:36:06;;;;;;;9.50;4.40;;;;;;;18.47;75.99;99510.48;93763;1203;93062;-61
2021/08/08 03:38:14;;;;;;;5.70;4.50;;;;;;;18.49;76.09;99510.89;93749;1199;79755;-62
2021/08/08 03:40:22;;;;;;;5.30;4.10;;;;;;;18.53;75.90;99507.41;93810;1202;82510;-62
2021/08/08 03:42:29;;;;;;;6.50;5.00;;;;;;;18.57;75.98;99509.59;93749;1203;98147;-62
2021/08/08 03:44:37;;;;;;;5.90;4.40;;;;;;;18.64;75.97;99508.82;93755;1196;87246;-59
2021/08/08 03:46:44;;;;;;;6.00;4.30;;;;;;;18.68;75.86;99508.73;93768;1203;93992;-58
2021/08/08 03:48:52;;;;;;;5.90;4.20;;;;;;;18.71;75.80;99504.48;93728;1202;80557;-58
2021/08/08 03:51:00;;;;;;;6.10;4.40;;;;;;;18.75;75.69;99504.95;93758;1203;82751;-62
2021/08/08 03:53:07;;;;;;;7.80;4.30;;;;;;;18.78;75.68;99498.27;93726;1202;98439;-62
2021/08/08 03:55:15;;;;;;;5.10;4.10;;;;;;;18.89;75.66;99496.21;93788;1202;87721;-59
2021/08/08 03:57:23;;;;;;;5.70;4.30;;;;;;;19.16;75.63;99495.14;93749;1202;95044;-58
2021/08/08 03:59:33;;;;;;;6.20;4.20;;;;;;;19.18;75.28;99491.92;93729;1204;80520;-58
2021/08/08 04:01:41;;;;;;;6.60;4.40;;;;;;;19.15;75.09;99490.48;93777;1195;80648;-62
2021/08/08 04:03:48;;;;;;;4.30;3.90;;;;;;;19.14;74.99;99489.66;93719;1204;99048;-62
2021/08/08 04:05:56;;;;;;;5.50;4.10;;;;;;;19.13;75.00;99494.20;93753;1199;86858;-58
2021/08/08 04:08:07;;;;;;;6.00;3.60;;;;;;;19.13;74.84;99489.43;93770;1202;94164;-58
2021/08/08 04:10:16;;;;;;;5.90;4.00;;;;;;;19.14;74.89;99481.11;93799;1196;77851;-58
2021/08/08 04:12:26;;;;;;;4.70;3.90;;;;;;;19.15;74.84;99479.09;93769;1202;82389;-58
2021/08/08 04:14:38;;;;;;;3.90;3.40;;;;;;;19.15;74.74;99484.63;93745;1203;99916;-61
2021/08/08 04:16:46;;;;;;;5.20;3.80;;;;;;;19.17;74.66;99488.02;93793;1196;86393;-58
2021/08/08 04:18:53;;;;;;;4.40;3.80;;;;;;;19.19;74.58;99501.02;93783;1204;93843;-58
2021/08/08 04:21:01;;;;;;;5.20;3.70;;;;;;;19.20;74.49;99507.92;93750;1189;78068;-63
2021/08/08 04:23:13;;;;;;;5.00;4.30;;;;;;;19.22;74.48;99510.63;93784;1203;82015;-62
2021/08/08 04:25:20;;;;;;;4.10;3.70;;;;;;;19.24;74.45;99522.39;93730;1202;99127;-62
2021/08/08 04:27:28;;;;;;;4.60;3.30;;;;;;;19.24;74.49;99528.33;93756;1203;88290;-62
2021/08/08 04:29:35;;;;;;;4.50;3.50;;;;;;;19.25;74.41;99529.20;93774;1203;94409;-59
2021/08/08 04:31:43;;;;;;;4.50;3.80;;;;;;;19.25;74.46;99543.17;93744;1196;78757;-62
2021/08/08 04:33:50;;;;;;;4.20;3.70;;;;;;;19.22;74.64;99547.27;93758;1196;81016;-62
2021/08/08 04:35:58;;;;;;;4.60;4.10;;;;;;;19.20;74.78;99561.58;93743;1202;100068;-63
2021/08/08 04:38:06;;;;;;;4.90;4.10;;;;;;;19.17;74.91;99556.75;93784;1203;87962;-62
2021/08/08 04:40:15;;;;;;;7.10;4.10;;;;;;;19.17;75.05;99555.95;93783;1203;93182;-62
2021/08/08 04:42:26;;;;;;;6.20;4.10;;;;;;;19.19;75.17;99552.02;93762;1196;77983;-63
2021/08/08 04:44:36;;;;;;;5.30;3.80;;;;;;;19.17;75.47;99544.44;93808;1203;82012;-61
2021/08/08 04:46:44;;;;;;;4.30;3.90;;;;;;;19.14;75.51;99538.51;93726;1203;98965;-63
2021/08/08 04:48:51;;;;;;;5.10;3.80;;;;;;;19.11;75.50;99536.20;93804;1203;86289;-63
2021/08/08 04:50:59;;;;;;;6.50;3.90;;;;;;;19.10;75.66;99550.54;93741;1202;93240;-58
2021/08/08 04:53:06;;;;;;;5.90;4.10;;;;;;;19.09;75.78;99557.04;93752;1198;77042;-58
2021/08/08 04:55:15;;;;;;;5.50;4.20;;;;;;;19.03;76.07;99563.96;93781;1202;82169;-55
2021/08/08 04:57:23;;;;;;;8.10;4.50;;;;;;;19.02;76.20;99591.38;93752;1203;99541;-55
2021/08/08 04:59:33;;;;;;;6.40;4.60;;;;;;;18.96;76.38;99605.46;93777;1203;88322;-55
2021/08/08 05:01:40;;;;;;;7.80;4.40;;;;;;;18.86;76.76;99620.77;93747;1202;94069;-61
2021/08/08 05:03:48;;;;;;;6.60;4.80;;;;;;;18.80;76.91;99612.84;93763;1203;79945;-60
2021/08/08 05:05:56;;;;;;;7.40;4.80;;;;;;;18.75;77.14;99621.80;93759;1203;81601;-55
2021/08/08 05:08:03;;;;;;;7.80;5.20;;;;;;;18.73;77.36;99609.29;93791;1203;98001;-55
2021/08/08 05:10:15;;;;;;;7.20;4.90;;;;;;;18.65;77.49;99600.20;93761;1202;87583;-60
2021/08/08 05:12:22;;;;;;;7.30;4.30;;;;;;;18.60;77.74;99597.70;93810;1202;93181;-60
2021/08/08 05:14:31;;;;;;;12.60;6.30;;;;;;;18.55;77.93;99588.68;93758;1196;78627;-60
2021/08/08 05:16:38;;;;;;;7.50;4.50;;;;;;;18.54;78.05;99572.20;93778;1203;82060;-55
2021/08/08 05:18:46;;;;;;;4.90;4.30;;;;;;;18.55;78.08;99577.08;93747;1203;99282;-55
2021/08/08 05:20:58;;;;;;;9.60;5.30;;;;;;;18.54;78.13;99574.00;93751;1203;87821;-55
2021/08/08 05:23:05;;;;;;;6.10;4.40;;;;;;;18.50;78.34;99567.23;93739;1202;93777;-55
2021/08/08 05:25:16;;;;;;;7.00;4.60;;;;;;;18.44;78.49;99564.58;93775;1199;81117;-62
2021/08/08 05:27:24;;;;;;;4.60;4.10;;;;;;;18.45;78.61;99562.13;93763;1202;80780;-63
2021/08/08 05:29:41;;;;;;;11.50;5.20;;;;;;;18.41;78.82;99553.06;93787;1203;99245;-64
2021/08/08 05:31:48;;;;;;;5.60;4.60;;;;;;;18.43;78.83;99572.35;93719;1202;88963;-58
2021/08/08 05:33:55;;;;;;;6.30;4.50;;;;;;;18.45;78.91;99580.58;93753;1202;94093;-60
2021/08/08 05:36:03;;;;;;;5.80;4.50;;;;;;;18.47;79.02;99575.35;93756;1203;81737;-58
2021/08/08 05:38:11;;;;;;;7.10;4.80;;;;;;;18.49;79.14;99576.04;93831;1196;80651;-58
2021/08/08 05:40:19;;;;;;;6.10;4.60;;;;;;;18.52;79.28;99572.34;93778;1202;98404;-66
2021/08/08 05:42:26;;;;;;;6.40;4.80;;;;;;;18.57;79.46;99575.51;93754;1203;88288;-66
2021/08/08 05:44:38;;;;;;;6.20;4.50;;;;;;;18.63;79.36;99575.45;93757;1203;94062;-59
2021/08/08 05:46:46;;;;;;;5.80;4.10;;;;;;;18.69;79.47;99572.05;93742;1202;81298;-64
2021/08/08 05:48:53;;;;;;;5.20;4.40;;;;;;;18.73;79.46;99567.31;93783;1203;82130;-65
2021/08/08 05:51:03;;;;;;;5.00;4.50;;;;;;;18.80;79.62;99566.87;93801;1203;99939;-58
2021/08/08 05:53:14;;;;;;;4.70;3.80;;;;;;;18.87;79.53;99567.74;93766;1203;87589;-58
2021/08/08 05:55:22;;;;;;;4.70;4.20;;;;;;;18.97;79.50;99568.79;93716;1198;93474;-58
2021/08/08 05:57:29;;;;;;;5.20;4.70;;;;;;;19.06;79.48;99572.14;93768;1203;80242;-59
2021/08/08 05:59:37;;;;;;;6.40;4.80;;;;;;;19.06;79.54;99578.05;93799;1204;81895;-59
2021/08/08 06:01:44;;;;;;;6.10;4.20;;;;;;;19.07;79.50;99576.30;93775;1203;100169;-59
2021/08/08 06:03:52;;;;;;;7.20;4.60;;;;;;;19.08;79.61;99573.90;93816;1203;85484;-59
2021/08/08 06:05:59;;;;;;;5.50;4.30;;;;;;;19.09;79.56;99576.04;93750;1203;94044;-64
2021/08/08 06:08:08;;;;;;;5.60;4.10;;;;;;;19.08;79.49;99570.73;93735;1202;80197;-64
2021/08/08 06:10:17;;;;;;;5.10;4.20;;;;;;;19.12;79.48;99579.14;93780;1203;81990;-59
2021/08/08 06:12:25;;;;;;;6.60;4.20;;;;;;;19.16;79.54;99576.31;93743;1203;99091;-59
2021/08/08 06:14:35;;;;;;;5.80;4.80;;;;;;;19.18;79.62;99578.17;93766;1203;87538;-62
2021/08/08 06:16:45;;;;;;;7.60;4.80;;;;;;;19.19;79.53;99575.99;93755;1203;93718;-59
2021/08/08 06:18:53;;;;;;;4.90;4.30;;;;;;;19.24;79.64;99580.95;93756;1202;79912;-58
2021/08/08 06:21:00;;;;;;;5.30;4.00;;;;;;;19.26;79.71;99582.28;93748;1189;80869;-64
2021/08/08 06:23:08;;;;;;;6.30;4.40;;;;;;;19.31;79.81;99581.27;93776;1203;98566;-64
2021/08/08 06:25:19;;;;;;;4.20;3.80;;;;;;;19.44;79.87;99584.09;93745;1203;87574;-59
2021/08/08 06:27:26;;;;;;;11.20;4.60;;;;;;;19.60;79.83;99590.31;93759;1198;92800;-59
2021/08/08 06:29:34;;;;;;;5.90;4.10;;;;;;;19.78;79.80;99592.62;93691;1205;80005;-60
2021/08/08 06:31:41;;;;;;;5.20;3.80;;;;;;;19.99;79.71;99597.58;93763;1189;80168;-64
2021/08/08 06:33:49;;;;;;;6.40;3.80;;;;;;;20.26;79.67;99599.06;93726;1203;98866;-63
2021/08/08 06:35:56;;;;;;;6.40;4.80;;;;;;;20.76;79.92;99603.79;93801;1203;87545;-63
2021/08/08 06:38:07;;;;;;;5.10;3.80;;;;;;;21.14;79.22;99603.48;93745;1204;94557;-64
2021/08/08 06:40:17;;;;;;;6.10;4.10;;;;;;;21.39;78.77;99606.64;93765;1203;78681;-64
2021/08/08 06:42:24;;;;;;;4.80;4.00;;;;;;;21.54;78.46;99607.91;93760;1190;81942;-64
2021/08/08 06:44:35;;;;;;;6.90;4.10;;;;;;;21.67;78.06;99614.55;93773;1203;99454;-64
2021/08/08 06:46:42;;;;;;;5.80;3.60;;;;;;;21.75;77.71;99613.92;93747;1202;87975;-64
2021/08/08 06:48:50;;;;;;;5.10;3.70;;;;;;;21.85;77.46;99612.79;93747;1203;94559;-64
2021/08/08 06:50:58;;;;;;;5.10;3.60;;;;;;;22.04;77.26;99618.88;93778;1203;82080;-59
2021/08/08 06:53:05;;;;;;;6.50;3.50;;;;;;;22.12;76.94;99618.02;93801;1203;81873;-59
2021/08/08 06:55:14;;;;;;;5.00;3.70;;;;;;;22.03;76.81;99624.89;93759;1198;99724;-64
2021/08/08 06:57:28;;;;;;;5.50;3.20;;;;;;;21.93;76.47;99631.09;93810;1203;88378;-65
2021/08/08 06:59:40;;;;;;;6.30;3.20;;;;;;;21.65;76.32;99636.84;93704;1203;94402;-64
2021/08/08 07:01:47;;;;;;;3.90;3.30;;;;;;;21.45;76.30;99642.23;93776;1203;81162;-58
2021/08/08 07:03:55;;;;;;;3.70;3.10;;;;;;;21.21;76.55;99655.02;93777;1203;81851;-58
2021/08/08 07:06:03;;;;;;;4.60;3.80;;;;;;;21.10;76.77;99658.33;93736;1203;100298;-64
2021/08/08 07:08:10;;;;;;;5.20;3.70;;;;;;;20.99;76.89;99660.28;93705;1204;87729;-64
2021/08/08 07:10:18;;;;;;;4.50;3.50;;;;;;;20.90;77.20;99661.98;93712;1203;94183;-58
2021/08/08 07:12:25;;;;;;;5.40;4.00;;;;;;;20.78;77.40;99662.52;93737;1196;81454;-58
2021/08/08 07:14:37;;;;;;;5.10;3.70;;;;;;;20.74;77.44;99670.05;93745;1189;80662;-58
2021/08/08 07:16:45;;;;;;;4.80;3.60;;;;;;;20.69;77.52;99670.54;93784;1203;99028;-59
2021/08/08 07:18:55;;;;;;;5.10;3.80;;;;;;;20.65;77.66;99672.45;93795;1203;87247;-59
2021/08/08 07:21:03;;;;;;;5.30;4.00;;;;;;;20.51;77.96;99676.66;93793;1203;94458;-59
2021/08/08 07:23:10;;;;;;;5.20;3.80;;;;;;;20.37;77.99;99682.28;93725;1203;80156;-58
2021/08/08 07:25:18;;;;;;;5.40;4.20;;;;;;;20.31;78.07;99686.66;93760;1203;81486;-58
2021/08/08 07:27:26;;;;;;;5.40;4.40;;;;;;;20.24;78.17;99693.38;93793;1202;100198;-58
2021/08/08 07:29:35;;;;;;;4.60;4.10;;;;;;;20.20;78.22;99699.54;93789;1203;88191;-62
2021/08/08 07:31:43;;;;;;;6.80;4.30;;;;;;;20.16;78.40;99704.52;93743;1201;94386;-64
2021/08/08 07:33:51;;;;;;;7.30;4.90;;;;;;;20.13;78.62;99706.59;93709;1202;79364;-64
2021/08/08 07:35:58;;;;;;;5.60;4.90;;;;;;;20.09;78.63;99711.50;93823;1203;82017;-58
2021/08/08 07:38:09;;;;;;;6.20;4.80;;;;;;;20.07;78.65;99719.78;93779;1203;99495;-58
2021/08/08 07:40:17;;;;;;;6.20;5.40;;;;;;;20.05;78.74;99722.46;93671;1205;88360;-63
2021/08/08 07:42:25;;;;;;;6.30;5.60;;;;;;;20.03;78.86;99723.70;93714;1203;94848;-64
2021/08/08 07:44:35;;;;;;;7.70;6.10;;;;;;;19.97;79.00;99730.77;93735;1189;78376;-63
2021/08/08 07:46:43;;;;;;;6.90;6.00;;;;;;;19.92;79.15;99734.30;93738;1203;81362;-64
2021/08/08 07:48:50;;;;;;;8.30;6.10;;;;;;;19.91;79.03;99735.16;93727;1203;99640;-64
2021/08/08 07:50:58;;;;;;;7.20;6.50;;;;;;;19.88;79.13;99736.52;93707;1203;88584;-58
2021/08/08 07:53:07;;;;;;;8.40;6.70;;;;;;;19.84;79.28;99744.67;93796;1203;94474;-59
2021/08/08 07:55:15;;;;;;;9.10;6.60;;;;;;;19.84;79.28;99749.00;93750;1203;79458;-59
2021/08/08 07:57:23;;;;;;;8.50;7.00;;;;;;;19.75;79.68;99758.92;93771;1203;82230;-59
2021/08/08 07:59:31;;;;;;;7.90;7.10;;;;;;;19.73;79.41;99761.10;93743;1203;99028;-58
2021/08/08 08:01:41;;;;;;;10.50;7.50;;;;;;;19.72;79.44;99764.54;93790;1203;86726;-58
2021/08/08 08:03:48;;;;;;;9.00;8.20;;;;;;;19.69;79.58;99774.39;93738;1203;93914;-58
2021/08/08 08:05:56;;;;;;;9.20;8.40;;;;;;;19.65;79.65;99774.65;93751;1203;78275;-64
2021/08/08 08:08:04;;;;;;;8.50;7.60;;;;;;;19.62;79.63;99782.14;93697;1203;82759;-64
2021/08/08 08:10:13;;;;;;;7.90;7.20;;;;;;;19.59;79.55;99791.48;93756;1202;99678;-63
2021/08/08 08:12:24;;;;;;;8.10;7.30;;;;;;;19.62;79.60;99797.80;93747;1196;86459;-63
2021/08/08 08:14:35;;;;;;;8.30;7.50;;;;;;;19.61;79.65;99800.98;93719;1203;94538;-64
2021/08/08 08:16:42;;;;;;;9.00;8.20;;;;;;;19.65;79.64;99806.93;93717;1203;80087;-62
2021/08/08 08:18:50;;;;;;;8.50;7.60;;;;;;;19.68;79.63;99807.49;93762;1203;82025;-64
2021/08/08 08:20:58;;;;;;;8.80;7.70;;;;;;;19.73;79.59;99802.83;93740;1203;99519;-63
2021/08/08 08:23:09;;;;;;;9.10;7.00;;;;;;;19.79;79.55;99801.60;93747;1203;87855;-64
2021/08/08 08:25:18;;;;;;;8.00;7.20;;;;;;;19.88;79.44;99808.23;93786;1203;94684;-64
2021/08/08 08:27:29;;;;;;;8.30;7.50;;;;;;;19.95;79.40;99815.80;93745;1196;79299;-63
2021/08/08 08:29:36;;;;;;;7.80;7.10;;;;;;;20.00;79.31;99817.55;93734;1203;81809;-62
2021/08/08 08:31:44;;;;;;;7.00;6.30;;;;;;;19.94;78.95;99820.62;93809;1203;99936;-64
2021/08/08 08:33:51;;;;;;;7.30;6.00;;;;;;;19.90;78.97;99822.73;93753;1203;87705;-64
2021/08/08 08:35:59;;;;;;;6.20;5.50;;;;;;;19.89;79.05;99830.01;93727;1203;93446;-58
2021/08/08 08:38:07;;;;;;;6.30;5.70;;;;;;;19.90;78.88;99831.27;93761;1196;78559;-58
2021/08/08 08:40:16;;;;;;;6.30;5.70;;;;;;;19.88;78.86;99829.62;93758;1200;82235;-63
2021/08/08 08:42:27;;;;;;;5.40;4.90;;;;;;;19.88;78.68;99836.58;93756;1203;100616;-62
2021/08/08 08:44:40;;;;;;;5.30;4.50;;;;;;;19.83;78.64;99844.83;93793;1203;88038;-59
2021/08/08 08:46:51;;;;;;;5.00;4.10;;;;;;;19.75;78.65;99849.27;93717;1203;94128;-63
2021/08/08 08:49:02;;;;;;;4.40;3.80;;;;;;;19.68;78.38;99853.04;93765;1203;77680;-63
2021/08/08 08:51:13;;;;;;;5.40;4.30;;;;;;;19.65;78.50;99860.09;93737;1203;82076;-57
2021/08/08 08:53:22;;;;;;;4.20;3.40;;;;;;;19.69;78.59;99860.73;93745;1203;98432;-57
2021/08/08 08:55:30;;;;;;;4.10;3.70;;;;;;;19.76;78.63;99855.29;93699;1203;88339;-57
2021/08/08 08:57:38;;;;;;;4.70;3.40;;;;;;;19.93;78.64;99853.50;93727;1203;93306;-57
2021/08/08 08:59:47;;;;;;;3.80;2.90;;;;;;;20.06;78.47;99858.80;93727;1203;81178;-58
2021/08/08 09:01:54;;;;;;;3.90;2.90;;;;;;;20.15;78.44;99861.39;93757;1196;80190;-58
2021/08/08 09:04:03;;;;;;;3.30;3.00;;;;;;;20.21;78.30;99865.48;93756;1203;100177;-58
2021/08/08 09:06:11;;;;;;;4.10;2.30;;;;;;;20.24;78.07;99866.02;93783;1196;87178;-62
2021/08/08 09:08:19;;;;;;;2.60;2.20;;;;;;;20.18;77.94;99871.33;93781;1196;92601;-63
2021/08/08 09:10:27;;;;;;;2.30;1.80;;;;;;;20.07;77.83;99877.96;93795;1203;78806;-63
2021/08/08 09:12:35;;;;;;;3.10;1.90;;;;;;;20.05;77.94;99887.27;93808;1196;82237;-62
2021/08/08 09:14:42;;;;;;;1.90;1.50;;;;;;;20.08;77.83;99894.85;93659;1204;99096;-58
2021/08/08 09:16:56;;;;;;;2.40;1.30;;;;;;;20.11;77.64;99897.02;93771;1203;88385;-59
2021/08/08 09:19:04;;;;;;;1.70;1.30;;;;;;;20.15;77.38;99907.73;93702;1203;94560;-58
2021/08/08 09:21:14;;;;;;;2.50;1.30;;;;;;;20.19;77.55;99917.76;93763;1203;79320;-66
2021/08/08 09:23:22;;;;;;;2.10;1.50;;;;;;;20.31;77.36;99925.55;93751;1189;80166;-66
2021/08/08 09:25:33;;;;;;;2.50;1.50;;;;;;;20.39;77.11;99927.30;93722;1203;98331;-66
2021/08/08 09:27:43;;;;;;;2.40;1.30;;;;;;;20.47;76.95;99929.38;93746;1203;88291;-67
2021/08/08 09:29:53;;;;;;;1.60;1.20;;;;;;;20.51;76.91;99923.81;93763;1203;93892;-66
2021/08/08 09:32:02;;;;;;;1.40;0.90;;;;;;;20.54;76.80;99927.30;93730;1196;78708;-59
2021/08/08 09:34:24;;;;;;;3.70;1.40;;;;;;;20.54;76.48;99928.71;93741;1203;80281;-58
2021/08/08 09:36:44;;;;;;;2.30;1.40;;;;;;;20.62;76.53;99935.40;93792;1203;99349;-66
2021/08/08 09:38:52;;;;;;;1.40;1.10;;;;;;;20.67;76.46;99940.09;93784;1196;87135;-66
2021/08/08 09:41:04;;;;;;;1.40;1.10;;;;;;;20.73;76.33;99941.72;93746;1203;94525;-70
2021/08/08 09:43:13;;;;;;;3.90;1.40;;;;;;;20.84;76.29;99948.73;93732;1203;79952;-72
2021/08/08 09:45:34;;;;;;;3.60;1.40;;;;;;;20.97;76.10;99953.54;93829;1196;81084;-72
2021/08/08 09:47:44;;;;;;;1.90;1.40;;;;;;;21.06;75.98;99963.52;93920;1203;100580;-71
2021/08/08 09:50:05;;;;;;;1.70;1.30;;;;;;;21.13;75.83;99976.42;93981;1202;86903;-74
2021/08/08 09:52:22;;;;;;;1.40;1.20;;;;;;;21.16;75.68;99983.30;93769;1203;93884;-71
2021/08/08 09:54:38;;;;;;;1.80;1.40;;;;;;;21.18;75.65;99991.45;93817;1196;80235;-71
2021/08/08 09:56:57;;;;;;;2.10;1.60;;;;;;;21.20;75.42;99993.94;93802;1196;81145;-74
2021/08/08 09:59:09;;;;;;;1.70;1.20;;;;;;;21.25;75.22;99997.85;93762;1203;100753;-71
2021/08/08 10:01:16;;;;;;;1.30;1.20;;;;;;;21.28;75.34;100009.40;93756;1196;85510;-72
2021/08/08 10:03:24;;;;;;;4.10;1.40;;;;;;;21.26;75.22;100003.78;93701;1199;91841;-68
2021/08/08 10:05:36;;;;;;;1.40;1.30;;;;;;;21.23;75.09;100008.02;93791;1195;77947;-72
2021/08/08 10:07:44;;;;;;;1.80;1.50;;;;;;;21.22;74.96;100006.52;93804;1197;80176;-69